sensor_id;sensor_type;location;lat;lon;timestamp;temperature;humidity
28530;DHT22;15737;49.760;6.632;2024-02-23T00:01:44;6.40;99.90
28530;DHT22;15737;49.760;6.632;2024-02-23T00:04:09;6.30;99.90
28530;DHT22;15737;49.760;6.632;2024-02-23T00:06:35;6.10;99.90
28530;DHT22;15737;49.760;6.632;2024-02-23T00:09:01;6.00;99.90
28530;DHT22;15737;49.760;6.632;2024-02-23T00:11:26;5.80;99.90
28530;DHT22;15737;49.760;6.632;2024-02-23T00:13:53;5.70;99.90
28530;DHT22;15737;49.760;6.632;2024-02-23T00:16:19;5.60;99.90
28530;DHT22;15737;49.760;6.632;2024-02-23T00:18:45;5.60;99.90
28530;DHT22;15737;49.760;6.632;2024-02-23T00:21:10;5.70;99.90
28530;DHT22;15737;49.760;6.632;2024-02-23T00:23:36;5.80;99.90
28530;DHT22;15737;49.760;6.632;2024-02-23T00:26:02;5.80;99.90
28530;DHT22;15737;49.760;6.632;2024-02-23T00:28:27;5.80;99.90
28530;DHT22;15737;49.760;6.632;2024-02-23T00:30:53;5.80;99.90
28530;DHT22;15737;49.760;6.632;2024-02-23T00:33:18;5.90;99.90
28530;DHT22;15737;49.760;6.632;2024-02-23T00:35:44;5.80;99.90
28530;DHT22;15737;49.760;6.632;2024-02-23T00:38:09;5.80;99.90
28530;DHT22;15737;49.760;6.632;2024-02-23T00:40:35;5.70;99.90
28530;DHT22;15737;49.760;6.632;2024-02-23T00:43:01;5.70;99.90
28530;DHT22;15737;49.760;6.632;2024-02-23T00:45:28;5.80;99.90
28530;DHT22;15737;49.760;6.632;2024-02-23T00:47:56;5.80;99.90
28530;DHT22;15737;49.760;6.632;2024-02-23T00:50:25;5.80;99.90
28530;DHT22;15737;49.760;6.632;2024-02-23T00:52:52;5.80;99.90
28530;DHT22;15737;49.760;6.632;2024-02-23T00:55:18;5.80;99.90
28530;DHT22;15737;49.760;6.632;2024-02-23T00:57:44;5.80;99.90
28530;DHT22;15737;49.760;6.632;2024-02-23T01:00:11;5.80;99.90
28530;DHT22;15737;49.760;6.632;2024-02-23T01:02:37;5.80;99.90
28530;DHT22;15737;49.760;6.632;2024-02-23T01:05:03;5.70;99.90
28530;DHT22;15737;49.760;6.632;2024-02-23T01:07:28;5.70;99.90
28530;DHT22;15737;49.760;6.632;2024-02-23T01:09:54;5.60;99.90
28530;DHT22;15737;49.760;6.632;2024-02-23T01:12:20;5.50;99.90
28530;DHT22;15737;49.760;6.632;2024-02-23T01:14:45;5.40;99.90
28530;DHT22;15737;49.760;6.632;2024-02-23T01:17:14;5.40;99.90
28530;DHT22;15737;49.760;6.632;2024-02-23T01:19:41;5.30;99.90
28530;DHT22;15737;49.760;6.632;2024-02-23T01:22:06;5.30;99.90
28530;DHT22;15737;49.760;6.632;2024-02-23T01:24:32;5.30;99.90
28530;DHT22;15737;49.760;6.632;2024-02-23T01:26:58;5.40;99.90
28530;DHT22;15737;49.760;6.632;2024-02-23T01:29:24;5.40;99.90
28530;DHT22;15737;49.760;6.632;2024-02-23T01:31:50;5.40;99.90
28530;DHT22;15737;49.760;6.632;2024-02-23T01:34:16;5.40;99.90
28530;DHT22;15737;49.760;6.632;2024-02-23T01:36:42;5.50;99.90
28530;DHT22;15737;49.760;6.632;2024-02-23T01:39:07;5.50;99.90
28530;DHT22;15737;49.760;6.632;2024-02-23T01:41:33;5.50;99.90
28530;DHT22;15737;49.760;6.632;2024-02-23T01:43:58;5.50;99.90
28530;DHT22;15737;49.760;6.632;2024-02-23T01:46:24;5.50;99.90
28530;DHT22;15737;49.760;6.632;2024-02-23T01:48:50;5.50;99.90
28530;DHT22;15737;49.760;6.632;2024-02-23T01:51:16;5.50;99.90
28530;DHT22;15737;49.760;6.632;2024-02-23T01:53:41;5.40;99.90
28530;DHT22;15737;49.760;6.632;2024-02-23T01:56:07;5.30;99.90
28530;DHT22;15737;49.760;6.632;2024-02-23T01:58:35;5.30;99.90
28530;DHT22;15737;49.760;6.632;2024-02-23T02:01:01;5.30;99.90
28530;DHT22;15737;49.760;6.632;2024-02-23T02:03:26;5.30;99.90
28530;DHT22;15737;49.760;6.632;2024-02-23T02:05:53;5.30;99.90
28530;DHT22;15737;49.760;6.632;2024-02-23T02:08:19;5.30;99.90
28530;DHT22;15737;49.760;6.632;2024-02-23T02:10:45;5.30;99.90
28530;DHT22;15737;49.760;6.632;2024-02-23T02:13:12;5.30;99.90
28530;DHT22;15737;49.760;6.632;2024-02-23T02:15:38;5.20;99.90
28530;DHT22;15737;49.760;6.632;2024-02-23T02:18:04;5.00;99.90
28530;DHT22;15737;49.760;6.632;2024-02-23T02:20:32;4.70;99.90
28530;DHT22;15737;49.760;6.632;2024-02-23T02:22:59;4.60;99.90
28530;DHT22;15737;49.760;6.632;2024-02-23T02:25:24;4.70;99.90
28530;DHT22;15737;49.760;6.632;2024-02-23T02:27:50;4.70;99.90
28530;DHT22;15737;49.760;6.632;2024-02-23T02:30:15;4.80;99.90
28530;DHT22;15737;49.760;6.632;2024-02-23T02:32:41;4.80;99.90
28530;DHT22;15737;49.760;6.632;2024-02-23T02:35:07;4.80;99.90
28530;DHT22;15737;49.760;6.632;2024-02-23T02:37:32;4.90;99.90
28530;DHT22;15737;49.760;6.632;2024-02-23T02:39:58;4.80;99.90
28530;DHT22;15737;49.760;6.632;2024-02-23T02:42:23;4.80;99.90
28530;DHT22;15737;49.760;6.632;2024-02-23T02:44:49;4.80;99.90
28530;DHT22;15737;49.760;6.632;2024-02-23T02:47:14;4.80;99.90
28530;DHT22;15737;49.760;6.632;2024-02-23T02:49:40;4.80;99.90
28530;DHT22;15737;49.760;6.632;2024-02-23T02:52:06;4.80;99.90
28530;DHT22;15737;49.760;6.632;2024-02-23T02:54:31;4.80;99.90
28530;DHT22;15737;49.760;6.632;2024-02-23T02:56:57;4.80;99.90
28530;DHT22;15737;49.760;6.632;2024-02-23T02:59:23;4.80;99.90
28530;DHT22;15737;49.760;6.632;2024-02-23T03:01:49;4.90;99.90
28530;DHT22;15737;49.760;6.632;2024-02-23T03:04:15;4.80;99.90
28530;DHT22;15737;49.760;6.632;2024-02-23T03:06:41;4.80;99.90
28530;DHT22;15737;49.760;6.632;2024-02-23T03:09:06;4.80;99.90
28530;DHT22;15737;49.760;6.632;2024-02-23T03:11:32;4.80;99.90
28530;DHT22;15737;49.760;6.632;2024-02-23T03:13:58;4.80;99.90
28530;DHT22;15737;49.760;6.632;2024-02-23T03:16:23;4.70;99.90
28530;DHT22;15737;49.760;6.632;2024-02-23T03:18:51;4.70;99.90
28530;DHT22;15737;49.760;6.632;2024-02-23T03:21:19;4.70;99.90
28530;DHT22;15737;49.760;6.632;2024-02-23T03:23:45;4.70;99.90
28530;DHT22;15737;49.760;6.632;2024-02-23T03:26:10;4.70;99.90
28530;DHT22;15737;49.760;6.632;2024-02-23T03:28:36;4.70;99.90
28530;DHT22;15737;49.760;6.632;2024-02-23T03:31:01;4.70;99.90
28530;DHT22;15737;49.760;6.632;2024-02-23T03:33:27;4.70;99.90
28530;DHT22;15737;49.760;6.632;2024-02-23T03:35:52;4.60;99.90
28530;DHT22;15737;49.760;6.632;2024-02-23T03:38:18;4.60;99.90
28530;DHT22;15737;49.760;6.632;2024-02-23T03:40:43;4.60;99.90
28530;DHT22;15737;49.760;6.632;2024-02-23T03:43:09;4.60;99.90
28530;DHT22;15737;49.760;6.632;2024-02-23T03:45:35;4.50;99.90
28530;DHT22;15737;49.760;6.632;2024-02-23T03:48:01;4.50;99.90
28530;DHT22;15737;49.760;6.632;2024-02-23T03:50:29;4.50;99.90
28530;DHT22;15737;49.760;6.632;2024-02-23T03:52:54;4.50;99.90
28530;DHT22;15737;49.760;6.632;2024-02-23T03:55:20;4.40;99.90
28530;DHT22;15737;49.760;6.632;2024-02-23T03:57:45;4.50;99.90
28530;DHT22;15737;49.760;6.632;2024-02-23T04:00:11;4.50;99.90
28530;DHT22;15737;49.760;6.632;2024-02-23T04:02:38;4.70;99.90
28530;DHT22;15737;49.760;6.632;2024-02-23T04:05:04;4.70;99.90
28530;DHT22;15737;49.760;6.632;2024-02-23T04:07:30;4.60;99.90
28530;DHT22;15737;49.760;6.632;2024-02-23T04:09:56;4.60;99.90
28530;DHT22;15737;49.760;6.632;2024-02-23T04:12:21;4.50;99.90
28530;DHT22;15737;49.760;6.632;2024-02-23T04:14:47;4.50;99.90
28530;DHT22;15737;49.760;6.632;2024-02-23T04:17:13;4.50;99.90
28530;DHT22;15737;49.760;6.632;2024-02-23T04:19:39;4.50;99.90
28530;DHT22;15737;49.760;6.632;2024-02-23T04:22:06;4.50;99.90
28530;DHT22;15737;49.760;6.632;2024-02-23T04:24:34;4.50;99.90
28530;DHT22;15737;49.760;6.632;2024-02-23T04:26:59;4.40;99.90
28530;DHT22;15737;49.760;6.632;2024-02-23T04:29:25;4.40;99.90
28530;DHT22;15737;49.760;6.632;2024-02-23T04:31:50;4.50;99.90
28530;DHT22;15737;49.760;6.632;2024-02-23T04:34:16;4.50;99.90
28530;DHT22;15737;49.760;6.632;2024-02-23T04:36:42;4.60;99.90
28530;DHT22;15737;49.760;6.632;2024-02-23T04:39:07;4.50;99.90
28530;DHT22;15737;49.760;6.632;2024-02-23T04:41:33;4.40;99.90
28530;DHT22;15737;49.760;6.632;2024-02-23T04:43:58;4.30;99.90
28530;DHT22;15737;49.760;6.632;2024-02-23T04:46:26;4.30;99.90
28530;DHT22;15737;49.760;6.632;2024-02-23T04:48:51;4.30;99.90
28530;DHT22;15737;49.760;6.632;2024-02-23T04:51:17;4.30;99.90
28530;DHT22;15737;49.760;6.632;2024-02-23T04:53:42;4.40;99.90
28530;DHT22;15737;49.760;6.632;2024-02-23T04:56:08;4.40;99.90
28530;DHT22;15737;49.760;6.632;2024-02-23T04:58:34;4.50;99.90
28530;DHT22;15737;49.760;6.632;2024-02-23T05:01:00;4.50;99.90
28530;DHT22;15737;49.760;6.632;2024-02-23T05:03:25;4.60;99.90
28530;DHT22;15737;49.760;6.632;2024-02-23T05:05:52;4.60;99.90
28530;DHT22;15737;49.760;6.632;2024-02-23T05:08:20;4.60;99.90
28530;DHT22;15737;49.760;6.632;2024-02-23T05:10:46;4.70;99.90
28530;DHT22;15737;49.760;6.632;2024-02-23T05:13:12;4.70;99.90
28530;DHT22;15737;49.760;6.632;2024-02-23T05:15:38;4.60;99.90
28530;DHT22;15737;49.760;6.632;2024-02-23T05:18:03;4.60;99.90
28530;DHT22;15737;49.760;6.632;2024-02-23T05:20:29;4.60;99.90
28530;DHT22;15737;49.760;6.632;2024-02-23T05:22:55;4.60;99.90
28530;DHT22;15737;49.760;6.632;2024-02-23T05:25:20;4.60;99.90
28530;DHT22;15737;49.760;6.632;2024-02-23T05:27:46;4.60;99.90
28530;DHT22;15737;49.760;6.632;2024-02-23T05:30:12;4.60;99.90
28530;DHT22;15737;49.760;6.632;2024-02-23T05:32:37;4.50;99.90
28530;DHT22;15737;49.760;6.632;2024-02-23T05:35:03;4.50;99.90
28530;DHT22;15737;49.760;6.632;2024-02-23T05:37:29;4.50;99.90
28530;DHT22;15737;49.760;6.632;2024-02-23T05:39:54;4.60;99.90
28530;DHT22;15737;49.760;6.632;2024-02-23T05:42:20;4.70;99.90
28530;DHT22;15737;49.760;6.632;2024-02-23T05:44:46;4.70;99.90
28530;DHT22;15737;49.760;6.632;2024-02-23T05:47:14;4.80;99.90
28530;DHT22;15737;49.760;6.632;2024-02-23T05:49:39;4.80;99.90
28530;DHT22;15737;49.760;6.632;2024-02-23T05:52:05;4.80;99.90
28530;DHT22;15737;49.760;6.632;2024-02-23T05:54:30;4.80;99.90
28530;DHT22;15737;49.760;6.632;2024-02-23T05:56:56;4.80;99.90
28530;DHT22;15737;49.760;6.632;2024-02-23T05:59:22;4.80;99.90
28530;DHT22;15737;49.760;6.632;2024-02-23T06:01:47;4.80;99.90
28530;DHT22;15737;49.760;6.632;2024-02-23T06:04:13;4.80;99.90
28530;DHT22;15737;49.760;6.632;2024-02-23T06:06:41;4.80;99.90
28530;DHT22;15737;49.760;6.632;2024-02-23T06:09:07;4.70;99.90
28530;DHT22;15737;49.760;6.632;2024-02-23T06:11:33;4.70;99.90
28530;DHT22;15737;49.760;6.632;2024-02-23T06:13:59;4.70;99.90
28530;DHT22;15737;49.760;6.632;2024-02-23T06:16:24;4.70;99.90
28530;DHT22;15737;49.760;6.632;2024-02-23T06:18:50;4.80;99.90
28530;DHT22;15737;49.760;6.632;2024-02-23T06:21:16;4.80;99.90
28530;DHT22;15737;49.760;6.632;2024-02-23T06:23:45;4.80;99.90
28530;DHT22;15737;49.760;6.632;2024-02-23T06:26:10;4.80;99.90
28530;DHT22;15737;49.760;6.632;2024-02-23T06:28:37;4.80;99.90
28530;DHT22;15737;49.760;6.632;2024-02-23T06:31:07;4.80;99.90
28530;DHT22;15737;49.760;6.632;2024-02-23T06:33:33;4.80;99.90
28530;DHT22;15737;49.760;6.632;2024-02-23T06:35:59;4.80;99.90
28530;DHT22;15737;49.760;6.632;2024-02-23T06:38:24;4.80;99.90
28530;DHT22;15737;49.760;6.632;2024-02-23T06:40:50;4.80;99.90
28530;DHT22;15737;49.760;6.632;2024-02-23T06:43:15;4.80;99.90
28530;DHT22;15737;49.760;6.632;2024-02-23T06:45:41;4.80;99.90
28530;DHT22;15737;49.760;6.632;2024-02-23T06:48:07;4.80;99.90
28530;DHT22;15737;49.760;6.632;2024-02-23T06:50:32;4.80;99.90
28530;DHT22;15737;49.760;6.632;2024-02-23T06:52:58;4.70;99.90
28530;DHT22;15737;49.760;6.632;2024-02-23T06:55:24;4.70;99.90
28530;DHT22;15737;49.760;6.632;2024-02-23T06:57:49;4.80;99.90
28530;DHT22;15737;49.760;6.632;2024-02-23T07:00:15;4.80;99.90
28530;DHT22;15737;49.760;6.632;2024-02-23T07:02:41;4.80;99.90
28530;DHT22;15737;49.760;6.632;2024-02-23T07:05:07;4.90;99.90
28530;DHT22;15737;49.760;6.632;2024-02-23T07:07:33;4.90;99.90
28530;DHT22;15737;49.760;6.632;2024-02-23T07:10:02;4.90;99.90
28530;DHT22;15737;49.760;6.632;2024-02-23T07:12:27;4.90;99.90
28530;DHT22;15737;49.760;6.632;2024-02-23T07:14:55;5.00;99.90
28530;DHT22;15737;49.760;6.632;2024-02-23T07:17:20;5.00;99.90
28530;DHT22;15737;49.760;6.632;2024-02-23T07:19:46;5.00;99.90
28530;DHT22;15737;49.760;6.632;2024-02-23T07:22:12;5.10;99.90
28530;DHT22;15737;49.760;6.632;2024-02-23T07:24:41;5.10;99.90
28530;DHT22;15737;49.760;6.632;2024-02-23T07:27:07;5.10;99.90
28530;DHT22;15737;49.760;6.632;2024-02-23T07:32:03;5.20;99.90
28530;DHT22;15737;49.760;6.632;2024-02-23T07:34:30;5.20;99.90
28530;DHT22;15737;49.760;6.632;2024-02-23T07:36:55;5.30;99.90
28530;DHT22;15737;49.760;6.632;2024-02-23T07:39:21;5.30;99.90
28530;DHT22;15737;49.760;6.632;2024-02-23T07:41:47;5.40;99.90
28530;DHT22;15737;49.760;6.632;2024-02-23T07:44:13;5.40;99.90
28530;DHT22;15737;49.760;6.632;2024-02-23T07:46:38;5.40;99.90
28530;DHT22;15737;49.760;6.632;2024-02-23T07:49:04;5.50;99.90
28530;DHT22;15737;49.760;6.632;2024-02-23T07:51:31;5.50;99.90
28530;DHT22;15737;49.760;6.632;2024-02-23T07:53:57;5.50;99.90
28530;DHT22;15737;49.760;6.632;2024-02-23T07:56:22;5.50;99.90
28530;DHT22;15737;49.760;6.632;2024-02-23T07:58:48;5.60;99.90
28530;DHT22;15737;49.760;6.632;2024-02-23T08:01:16;5.70;99.90
28530;DHT22;15737;49.760;6.632;2024-02-23T08:03:42;5.70;99.90
28530;DHT22;15737;49.760;6.632;2024-02-23T08:06:07;5.70;99.90
28530;DHT22;15737;49.760;6.632;2024-02-23T08:08:35;5.70;99.90
28530;DHT22;15737;49.760;6.632;2024-02-23T08:11:04;5.80;99.90
28530;DHT22;15737;49.760;6.632;2024-02-23T08:13:30;5.90;99.90
28530;DHT22;15737;49.760;6.632;2024-02-23T08:15:57;6.00;99.90
28530;DHT22;15737;49.760;6.632;2024-02-23T08:18:22;6.30;99.90
28530;DHT22;15737;49.760;6.632;2024-02-23T08:20:48;6.50;99.90
28530;DHT22;15737;49.760;6.632;2024-02-23T08:23:14;6.70;99.90
28530;DHT22;15737;49.760;6.632;2024-02-23T08:25:39;6.90;99.90
28530;DHT22;15737;49.760;6.632;2024-02-23T08:28:05;7.00;99.90
28530;DHT22;15737;49.760;6.632;2024-02-23T08:30:31;6.90;99.90
28530;DHT22;15737;49.760;6.632;2024-02-23T08:32:57;6.90;99.90
28530;DHT22;15737;49.760;6.632;2024-02-23T08:35:22;6.80;99.90
28530;DHT22;15737;49.760;6.632;2024-02-23T08:37:48;6.70;99.90
28530;DHT22;15737;49.760;6.632;2024-02-23T08:40:14;6.60;99.90
28530;DHT22;15737;49.760;6.632;2024-02-23T08:42:40;6.50;99.90
28530;DHT22;15737;49.760;6.632;2024-02-23T08:45:06;6.40;99.90
28530;DHT22;15737;49.760;6.632;2024-02-23T08:47:31;6.40;99.90
28530;DHT22;15737;49.760;6.632;2024-02-23T08:49:58;6.50;99.90
28530;DHT22;15737;49.760;6.632;2024-02-23T08:52:23;6.40;99.90
28530;DHT22;15737;49.760;6.632;2024-02-23T08:54:51;6.30;99.90
28530;DHT22;15737;49.760;6.632;2024-02-23T08:57:16;6.30;99.90
28530;DHT22;15737;49.760;6.632;2024-02-23T08:59:45;6.30;99.90
28530;DHT22;15737;49.760;6.632;2024-02-23T09:02:10;6.30;99.90
28530;DHT22;15737;49.760;6.632;2024-02-23T09:04:36;6.40;99.90
28530;DHT22;15737;49.760;6.632;2024-02-23T09:07:02;6.40;99.90
28530;DHT22;15737;49.760;6.632;2024-02-23T09:09:27;6.40;99.90
28530;DHT22;15737;49.760;6.632;2024-02-23T09:11:53;6.50;99.90
28530;DHT22;15737;49.760;6.632;2024-02-23T09:14:18;6.50;99.90
28530;DHT22;15737;49.760;6.632;2024-02-23T09:16:44;6.50;99.90
28530;DHT22;15737;49.760;6.632;2024-02-23T09:19:11;6.80;99.90
28530;DHT22;15737;49.760;6.632;2024-02-23T09:21:37;7.20;99.90
28530;DHT22;15737;49.760;6.632;2024-02-23T09:24:03;7.50;99.90
28530;DHT22;15737;49.760;6.632;2024-02-23T09:26:29;7.60;99.90
28530;DHT22;15737;49.760;6.632;2024-02-23T09:28:54;7.60;99.90
28530;DHT22;15737;49.760;6.632;2024-02-23T09:31:20;8.10;99.90
28530;DHT22;15737;49.760;6.632;2024-02-23T09:33:45;9.30;99.90
28530;DHT22;15737;49.760;6.632;2024-02-23T09:36:12;10.20;99.90
28530;DHT22;15737;49.760;6.632;2024-02-23T09:38:37;9.80;99.90
28530;DHT22;15737;49.760;6.632;2024-02-23T09:41:03;9.50;99.90
28530;DHT22;15737;49.760;6.632;2024-02-23T09:43:30;9.80;99.90
28530;DHT22;15737;49.760;6.632;2024-02-23T09:45:57;11.10;99.90
28530;DHT22;15737;49.760;6.632;2024-02-23T09:48:23;11.40;99.90
28530;DHT22;15737;49.760;6.632;2024-02-23T09:50:50;10.70;99.90
28530;DHT22;15737;49.760;6.632;2024-02-23T09:53:17;9.80;99.90
28530;DHT22;15737;49.760;6.632;2024-02-23T09:55:45;8.90;99.90
28530;DHT22;15737;49.760;6.632;2024-02-23T09:58:12;8.30;99.90
28530;DHT22;15737;49.760;6.632;2024-02-23T10:00:39;7.70;99.90
28530;DHT22;15737;49.760;6.632;2024-02-23T10:03:05;7.40;99.90
28530;DHT22;15737;49.760;6.632;2024-02-23T10:05:31;7.20;99.90
28530;DHT22;15737;49.760;6.632;2024-02-23T10:07:57;7.00;99.90
28530;DHT22;15737;49.760;6.632;2024-02-23T10:10:33;6.80;99.90
28530;DHT22;15737;49.760;6.632;2024-02-23T10:13:00;6.80;99.90
28530;DHT22;15737;49.760;6.632;2024-02-23T10:15:28;6.90;99.90
28530;DHT22;15737;49.760;6.632;2024-02-23T10:17:54;6.90;99.90
28530;DHT22;15737;49.760;6.632;2024-02-23T10:20:20;7.10;99.90
28530;DHT22;15737;49.760;6.632;2024-02-23T10:22:45;7.20;99.90
28530;DHT22;15737;49.760;6.632;2024-02-23T10:25:11;7.30;99.90
28530;DHT22;15737;49.760;6.632;2024-02-23T10:27:37;7.50;99.90
28530;DHT22;15737;49.760;6.632;2024-02-23T10:30:02;7.80;99.90
28530;DHT22;15737;49.760;6.632;2024-02-23T10:32:29;7.80;99.90
28530;DHT22;15737;49.760;6.632;2024-02-23T10:37:24;8.20;99.90
28530;DHT22;15737;49.760;6.632;2024-02-23T10:39:55;8.50;99.90
28530;DHT22;15737;49.760;6.632;2024-02-23T10:42:23;8.50;99.90
28530;DHT22;15737;49.760;6.632;2024-02-23T10:44:50;8.40;99.90
28530;DHT22;15737;49.760;6.632;2024-02-23T10:47:16;8.10;99.90
28530;DHT22;15737;49.760;6.632;2024-02-23T10:49:44;8.00;99.90
28530;DHT22;15737;49.760;6.632;2024-02-23T10:52:11;7.90;99.90
28530;DHT22;15737;49.760;6.632;2024-02-23T10:54:39;7.90;99.90
28530;DHT22;15737;49.760;6.632;2024-02-23T10:57:05;8.10;99.90
28530;DHT22;15737;49.760;6.632;2024-02-23T10:59:31;8.40;99.90
28530;DHT22;15737;49.760;6.632;2024-02-23T11:01:59;8.80;99.90
28530;DHT22;15737;49.760;6.632;2024-02-23T11:04:26;10.00;99.90
28530;DHT22;15737;49.760;6.632;2024-02-23T11:06:54;11.10;99.90
28530;DHT22;15737;49.760;6.632;2024-02-23T11:09:24;11.90;99.90
28530;DHT22;15737;49.760;6.632;2024-02-23T11:11:54;12.80;99.90
28530;DHT22;15737;49.760;6.632;2024-02-23T11:14:30;13.80;99.90
28530;DHT22;15737;49.760;6.632;2024-02-23T11:16:57;14.90;99.90
28530;DHT22;15737;49.760;6.632;2024-02-23T11:19:35;15.50;99.90
28530;DHT22;15737;49.760;6.632;2024-02-23T11:22:02;14.80;99.90
28530;DHT22;15737;49.760;6.632;2024-02-23T11:24:31;13.40;99.90
28530;DHT22;15737;49.760;6.632;2024-02-23T11:26:58;12.20;99.90
28530;DHT22;15737;49.760;6.632;2024-02-23T11:29:27;11.90;99.90
28530;DHT22;15737;49.760;6.632;2024-02-23T11:31:57;11.60;99.90
28530;DHT22;15737;49.760;6.632;2024-02-23T11:34:27;11.60;99.90
28530;DHT22;15737;49.760;6.632;2024-02-23T11:36:53;11.70;99.90
28530;DHT22;15737;49.760;6.632;2024-02-23T11:39:23;11.10;99.90
28530;DHT22;15737;49.760;6.632;2024-02-23T11:41:49;10.50;99.90
28530;DHT22;15737;49.760;6.632;2024-02-23T11:44:15;10.20;99.90
28530;DHT22;15737;49.760;6.632;2024-02-23T11:46:43;10.00;99.90
28530;DHT22;15737;49.760;6.632;2024-02-23T11:49:08;9.70;99.90
28530;DHT22;15737;49.760;6.632;2024-02-23T11:51:34;9.40;99.90
28530;DHT22;15737;49.760;6.632;2024-02-23T11:54:00;9.20;99.90
28530;DHT22;15737;49.760;6.632;2024-02-23T11:56:26;8.90;99.90
28530;DHT22;15737;49.760;6.632;2024-02-23T11:58:54;8.50;99.90
28530;DHT22;15737;49.760;6.632;2024-02-23T12:01:20;8.20;99.90
28530;DHT22;15737;49.760;6.632;2024-02-23T12:03:46;8.00;99.90
28530;DHT22;15737;49.760;6.632;2024-02-23T12:06:11;7.50;99.90
28530;DHT22;15737;49.760;6.632;2024-02-23T12:08:38;6.80;99.90
28530;DHT22;15737;49.760;6.632;2024-02-23T12:11:05;6.10;99.90
28530;DHT22;15737;49.760;6.632;2024-02-23T12:13:31;6.30;99.90
28530;DHT22;15737;49.760;6.632;2024-02-23T12:15:57;7.30;99.90
28530;DHT22;15737;49.760;6.632;2024-02-23T12:18:23;7.50;99.90
28530;DHT22;15737;49.760;6.632;2024-02-23T12:20:51;7.10;99.90
28530;DHT22;15737;49.760;6.632;2024-02-23T12:23:17;6.60;99.90
28530;DHT22;15737;49.760;6.632;2024-02-23T12:25:58;6.60;99.90
28530;DHT22;15737;49.760;6.632;2024-02-23T12:28:24;6.70;99.90
28530;DHT22;15737;49.760;6.632;2024-02-23T12:31:00;7.60;99.90
28530;DHT22;15737;49.760;6.632;2024-02-23T12:33:31;8.40;99.90
28530;DHT22;15737;49.760;6.632;2024-02-23T12:35:58;8.40;99.90
28530;DHT22;15737;49.760;6.632;2024-02-23T12:38:25;8.20;99.90
28530;DHT22;15737;49.760;6.632;2024-02-23T12:40:50;8.10;99.90
28530;DHT22;15737;49.760;6.632;2024-02-23T12:43:16;8.10;99.90
28530;DHT22;15737;49.760;6.632;2024-02-23T12:45:42;8.00;99.90
28530;DHT22;15737;49.760;6.632;2024-02-23T12:48:10;7.90;99.90
28530;DHT22;15737;49.760;6.632;2024-02-23T12:50:35;8.00;99.90
28530;DHT22;15737;49.760;6.632;2024-02-23T12:53:02;7.90;99.90
28530;DHT22;15737;49.760;6.632;2024-02-23T12:55:28;7.90;99.90
28530;DHT22;15737;49.760;6.632;2024-02-23T12:57:53;7.90;99.90
28530;DHT22;15737;49.760;6.632;2024-02-23T13:00:18;8.00;99.90
28530;DHT22;15737;49.760;6.632;2024-02-23T13:02:44;8.20;99.90
28530;DHT22;15737;49.760;6.632;2024-02-23T13:05:10;8.20;99.90
28530;DHT22;15737;49.760;6.632;2024-02-23T13:07:35;8.00;99.90
28530;DHT22;15737;49.760;6.632;2024-02-23T13:10:04;8.00;99.90
28530;DHT22;15737;49.760;6.632;2024-02-23T13:12:29;7.80;99.90
28530;DHT22;15737;49.760;6.632;2024-02-23T13:14:55;7.60;99.90
28530;DHT22;15737;49.760;6.632;2024-02-23T13:17:20;8.10;99.90
28530;DHT22;15737;49.760;6.632;2024-02-23T13:19:46;8.10;99.90
28530;DHT22;15737;49.760;6.632;2024-02-23T13:22:12;8.00;99.90
28530;DHT22;15737;49.760;6.632;2024-02-23T13:24:37;8.00;99.90
28530;DHT22;15737;49.760;6.632;2024-02-23T13:27:05;8.70;99.90
28530;DHT22;15737;49.760;6.632;2024-02-23T13:29:31;9.30;99.90
28530;DHT22;15737;49.760;6.632;2024-02-23T13:31:56;9.50;99.90
28530;DHT22;15737;49.760;6.632;2024-02-23T13:34:22;9.60;99.90
28530;DHT22;15737;49.760;6.632;2024-02-23T13:36:47;9.40;99.90
28530;DHT22;15737;49.760;6.632;2024-02-23T13:39:15;9.20;99.90
28530;DHT22;15737;49.760;6.632;2024-02-23T13:41:41;9.00;99.90
28530;DHT22;15737;49.760;6.632;2024-02-23T13:44:06;9.00;99.90
28530;DHT22;15737;49.760;6.632;2024-02-23T13:46:36;8.90;99.90
28530;DHT22;15737;49.760;6.632;2024-02-23T13:49:05;8.70;99.90
28530;DHT22;15737;49.760;6.632;2024-02-23T13:51:32;8.50;99.90
28530;DHT22;15737;49.760;6.632;2024-02-23T13:53:58;8.30;99.90
28530;DHT22;15737;49.760;6.632;2024-02-23T13:56:23;8.10;99.90
28530;DHT22;15737;49.760;6.632;2024-02-23T13:58:49;7.80;99.90
28530;DHT22;15737;49.760;6.632;2024-02-23T14:01:15;7.90;99.90
28530;DHT22;15737;49.760;6.632;2024-02-23T14:03:40;8.60;99.90
28530;DHT22;15737;49.760;6.632;2024-02-23T14:06:06;9.40;99.90
28530;DHT22;15737;49.760;6.632;2024-02-23T14:08:32;10.20;99.90
28530;DHT22;15737;49.760;6.632;2024-02-23T14:10:59;10.80;99.90
28530;DHT22;15737;49.760;6.632;2024-02-23T14:13:25;11.30;99.90
28530;DHT22;15737;49.760;6.632;2024-02-23T14:15:51;11.50;99.90
28530;DHT22;15737;49.760;6.632;2024-02-23T14:18:16;11.70;99.90
28530;DHT22;15737;49.760;6.632;2024-02-23T14:20:42;12.70;99.90
28530;DHT22;15737;49.760;6.632;2024-02-23T14:23:07;13.40;99.90
28530;DHT22;15737;49.760;6.632;2024-02-23T14:25:33;13.30;99.90
28530;DHT22;15737;49.760;6.632;2024-02-23T14:27:59;12.70;99.90
28530;DHT22;15737;49.760;6.632;2024-02-23T14:30:25;12.10;99.90
28530;DHT22;15737;49.760;6.632;2024-02-23T14:32:50;12.10;99.90
28530;DHT22;15737;49.760;6.632;2024-02-23T14:35:16;13.00;99.90
28530;DHT22;15737;49.760;6.632;2024-02-23T14:37:41;13.80;99.90
28530;DHT22;15737;49.760;6.632;2024-02-23T14:40:07;13.90;99.90
28530;DHT22;15737;49.760;6.632;2024-02-23T14:42:33;13.50;99.90
28530;DHT22;15737;49.760;6.632;2024-02-23T14:44:59;13.40;99.90
28530;DHT22;15737;49.760;6.632;2024-02-23T14:47:24;13.30;99.90
28530;DHT22;15737;49.760;6.632;2024-02-23T14:49:50;13.20;99.90
28530;DHT22;15737;49.760;6.632;2024-02-23T14:52:15;12.80;99.90
28530;DHT22;15737;49.760;6.632;2024-02-23T14:54:41;12.40;99.90
28530;DHT22;15737;49.760;6.632;2024-02-23T14:57:07;11.90;99.90
28530;DHT22;15737;49.760;6.632;2024-02-23T14:59:33;11.70;99.90
28530;DHT22;15737;49.760;6.632;2024-02-23T15:02:01;11.60;99.90
28530;DHT22;15737;49.760;6.632;2024-02-23T15:04:27;11.70;99.90
28530;DHT22;15737;49.760;6.632;2024-02-23T15:06:53;11.80;99.90
28530;DHT22;15737;49.760;6.632;2024-02-23T15:09:19;11.90;99.90
28530;DHT22;15737;49.760;6.632;2024-02-23T15:11:44;12.20;99.90
28530;DHT22;15737;49.760;6.632;2024-02-23T15:14:10;12.30;99.90
28530;DHT22;15737;49.760;6.632;2024-02-23T15:16:36;12.00;99.90
28530;DHT22;15737;49.760;6.632;2024-02-23T15:19:02;11.70;99.90
28530;DHT22;15737;49.760;6.632;2024-02-23T15:21:28;11.30;99.90
28530;DHT22;15737;49.760;6.632;2024-02-23T15:23:53;10.90;99.90
28530;DHT22;15737;49.760;6.632;2024-02-23T15:26:19;10.50;99.90
28530;DHT22;15737;49.760;6.632;2024-02-23T15:28:45;10.10;99.90
28530;DHT22;15737;49.760;6.632;2024-02-23T15:31:11;9.80;99.90
28530;DHT22;15737;49.760;6.632;2024-02-23T15:33:37;9.80;99.90
28530;DHT22;15737;49.760;6.632;2024-02-23T15:36:06;9.70;99.90
28530;DHT22;15737;49.760;6.632;2024-02-23T15:38:36;9.60;99.90
28530;DHT22;15737;49.760;6.632;2024-02-23T15:41:02;9.60;99.90
28530;DHT22;15737;49.760;6.632;2024-02-23T15:43:29;9.50;99.90